createdAt,value
2022-07-25T00:32:03.136Z,0
2022-07-25T00:32:43.638Z,0
2022-07-25T00:33:24.131Z,0
2022-07-25T00:34:04.955Z,0
2022-07-25T00:34:45.206Z,0
2022-07-25T00:35:25.699Z,0
2022-07-25T00:36:06.255Z,0
2022-07-25T00:36:46.750Z,0
2022-07-25T00:37:27.250Z,0
2022-07-25T00:38:07.755Z,0
2022-07-25T00:45:33.172Z,0
2022-07-25T00:46:13.794Z,0
2022-07-25T00:46:54.185Z,0
2022-07-25T00:47:34.679Z,0
2022-07-25T00:48:55.638Z,0
2022-07-25T00:49:36.273Z,0
2022-07-25T00:50:16.717Z,0
2022-07-25T00:50:57.246Z,0
2022-07-25T00:51:37.667Z,0
2022-07-25T00:59:03.156Z,0
2022-07-25T00:59:43.611Z,0
2022-07-25T01:00:24.262Z,0
2022-07-25T01:01:04.792Z,0
2022-07-25T01:01:45.327Z,0
2022-07-25T01:02:26.396Z,0
2022-07-25T01:03:06.877Z,0
2022-07-25T01:08:32.828Z,0
2022-07-25T01:09:13.306Z,0
2022-07-25T01:09:53.784Z,0
2022-07-25T01:10:34.276Z,0
2022-07-25T01:11:14.787Z,0
2022-07-25T01:11:55.285Z,0
2022-07-25T01:12:35.756Z,0
2022-07-25T01:13:56.796Z,0
2022-07-25T01:14:37.303Z,0
2022-07-25T01:15:17.797Z,0
2022-07-25T01:22:02.797Z,0
2022-07-25T01:22:43.229Z,0
2022-07-25T01:23:23.702Z,0
2022-07-25T01:24:04.452Z,0
2022-07-25T01:24:44.727Z,0
2022-07-25T01:25:25.246Z,0
2022-07-25T01:26:05.767Z,0
2022-07-25T01:26:46.204Z,0
2022-07-25T01:27:26.784Z,0
2022-07-25T01:28:07.270Z,0
2022-07-25T01:28:47.770Z,0
2022-07-25T01:35:32.795Z,0
2022-07-25T01:36:13.290Z,0
2022-07-25T01:36:53.876Z,0
2022-07-25T01:37:34.336Z,0
2022-07-25T01:38:14.858Z,0
2022-07-25T01:38:55.334Z,0
2022-07-25T01:39:35.933Z,0
2022-07-25T01:40:16.439Z,0
2022-07-25T01:40:56.910Z,0
2022-07-25T01:41:37.400Z,0
2022-07-25T01:42:17.876Z,0
2022-07-25T01:49:02.929Z,0
2022-07-25T01:49:43.406Z,0
2022-07-25T01:50:23.936Z,0
2022-07-25T01:51:04.391Z,0
2022-07-25T01:51:44.857Z,0
2022-07-25T01:52:25.360Z,0
2022-07-25T01:53:05.945Z,0
2022-07-25T01:53:46.300Z,0
2022-07-25T01:54:26.821Z,0
2022-07-25T01:55:07.399Z,0
2022-07-25T02:03:13.215Z,0
2022-07-25T02:03:53.661Z,0
2022-07-25T02:04:34.256Z,0
2022-07-25T02:05:14.678Z,0
2022-07-25T02:05:55.109Z,0
2022-07-25T02:06:35.600Z,0
2022-07-25T02:07:16.095Z,0
2022-07-25T02:07:56.630Z,0
2022-07-25T02:10:36.277Z,0
2022-07-25T02:11:16.652Z,0
2022-07-25T02:11:57.101Z,0
2022-07-25T02:12:37.604Z,0
2022-07-25T02:13:18.133Z,0
2022-07-25T02:13:58.578Z,0
2022-07-25T02:14:39.030Z,0
2022-07-25T02:15:19.548Z,0
2022-07-25T02:16:40.576Z,0
2022-07-25T02:17:21.096Z,0
2022-07-25T02:18:01.483Z,0
2022-07-25T02:23:01.382Z,0
2022-07-25T02:23:41.903Z,0
2022-07-25T02:24:22.388Z,0
2022-07-25T02:25:02.861Z,0
2022-07-25T02:25:43.342Z,0
2022-07-25T02:26:23.839Z,0
2022-07-25T02:27:04.373Z,0
2022-07-25T02:27:44.810Z,0
2022-07-25T02:28:25.301Z,0
2022-07-25T02:29:05.801Z,0
2022-07-25T02:29:46.263Z,0
2022-07-25T02:37:11.536Z,0
2022-07-25T02:37:52.033Z,0
2022-07-25T02:38:32.518Z,0
2022-07-25T02:39:13.004Z,0
2022-07-25T02:39:53.437Z,0
2022-07-25T02:40:33.951Z,0
2022-07-25T02:41:14.402Z,0
2022-07-25T02:41:54.904Z,0
2022-07-25T02:42:35.408Z,0
2022-07-25T02:43:15.924Z,0
2022-07-25T02:49:21.196Z,0
2022-07-25T02:50:01.631Z,0
2022-07-25T02:50:42.071Z,0
2022-07-25T02:51:22.575Z,0
2022-07-25T02:52:03.069Z,0
2022-07-25T02:52:43.556Z,0
2022-07-25T02:54:04.525Z,0
2022-07-25T02:54:44.966Z,0
2022-07-25T02:55:25.471Z,0
2022-07-25T02:56:05.962Z,0
2022-07-25T02:56:46.444Z,0
2022-07-25T02:58:59.143Z,0
2022-07-25T02:59:39.671Z,0
2022-07-25T03:00:20.141Z,0
2022-07-25T03:01:00.727Z,0
2022-07-25T03:01:41.311Z,0
2022-07-25T03:02:21.755Z,0
2022-07-25T03:03:02.215Z,0
2022-07-25T03:04:23.164Z,0
2022-07-25T03:05:03.689Z,0
2022-07-25T03:05:44.138Z,0
2022-07-25T03:12:28.994Z,0
2022-07-25T03:13:09.496Z,0
2022-07-25T03:13:50.020Z,4
2022-07-25T03:14:30.469Z,4
2022-07-25T03:15:10.902Z,4
2022-07-25T03:15:51.471Z,4
2022-07-25T03:16:31.897Z,0
2022-07-25T03:17:12.460Z,0
2022-07-25T03:17:52.899Z,0
2022-07-25T03:18:33.378Z,0
2022-07-25T03:19:13.861Z,4
2022-07-25T03:26:39.133Z,8
2022-07-25T03:27:19.674Z,8
2022-07-25T03:28:00.071Z,8
2022-07-25T03:28:40.562Z,8
2022-07-25T03:29:21.082Z,8
2022-07-25T03:30:01.506Z,12
2022-07-25T03:30:42.069Z,12
2022-07-25T03:31:22.580Z,12
2022-07-25T03:32:03.116Z,12
2022-07-25T03:32:43.520Z,16
2022-07-25T03:33:24.043Z,16
2022-07-25T03:38:49.410Z,32
2022-07-25T03:39:29.898Z,32
2022-07-25T03:40:10.329Z,36
2022-07-25T03:40:50.887Z,36
2022-07-25T03:41:31.376Z,44
2022-07-25T03:42:11.890Z,44
2022-07-25T03:42:52.410Z,48
2022-07-25T03:43:32.815Z,48
2022-07-25T03:44:13.330Z,52
2022-07-25T03:44:53.885Z,56
2022-07-25T03:52:19.277Z,96
2022-07-25T03:52:59.719Z,104
2022-07-25T03:53:40.355Z,108
2022-07-25T03:54:20.786Z,112
2022-07-25T03:55:01.314Z,120
2022-07-25T03:55:41.786Z,124
2022-07-25T03:56:22.241Z,132
2022-07-25T03:57:02.730Z,136
2022-07-25T03:57:43.235Z,140
2022-07-25T03:58:24.609Z,148
2022-07-25T04:04:29.181Z,216
2022-07-25T04:05:09.683Z,224
2022-07-25T04:05:50.174Z,236
2022-07-25T04:06:30.634Z,244
2022-07-25T04:07:11.126Z,256
2022-07-25T04:07:51.721Z,264
2022-07-25T04:08:32.175Z,276
2022-07-25T04:09:12.638Z,288
2022-07-25T04:09:53.154Z,300
2022-07-25T04:10:33.627Z,312
2022-07-25T04:11:14.141Z,328
2022-07-25T04:17:59.057Z,532
2022-07-25T04:18:39.595Z,560
2022-07-25T04:19:20.060Z,600
2022-07-25T04:20:00.506Z,652
2022-07-25T04:20:40.924Z,760
2022-07-25T04:21:21.409Z,920
2022-07-25T04:22:01.923Z,1120
2022-07-25T04:22:46.686Z,1212
2022-07-25T04:23:22.871Z,1160
2022-07-25T04:24:03.802Z,1068
2022-07-25T04:24:43.918Z,952
2022-07-25T04:31:28.988Z,1636
2022-07-25T04:32:09.453Z,1712
2022-07-25T04:32:49.937Z,1832
2022-07-25T04:33:30.359Z,1996
2022-07-25T04:34:11.630Z,2168
2022-07-25T04:34:52.203Z,2356
2022-07-25T04:35:32.629Z,2512
2022-07-25T04:38:47.609Z,3380
2022-07-25T04:39:27.998Z,3496
2022-07-25T04:40:08.506Z,3524
2022-07-25T04:40:49.063Z,3548
2022-07-25T04:41:29.523Z,3640
2022-07-25T04:42:10.050Z,3808
2022-07-25T04:42:50.505Z,3968
2022-07-25T04:43:31.005Z,4152
2022-07-25T04:44:51.992Z,4328
2022-07-25T04:51:36.983Z,6780
2022-07-25T04:52:17.420Z,6884
2022-07-25T04:52:58.023Z,7044
2022-07-25T04:53:38.494Z,7244
2022-07-25T04:54:18.952Z,7576
2022-07-25T04:54:59.485Z,7928
2022-07-25T04:55:39.987Z,8208
2022-07-25T04:56:20.485Z,8484
2022-07-25T04:57:41.578Z,8712
2022-07-25T05:04:26.709Z,11392
2022-07-25T05:05:07.215Z,12096
2022-07-25T05:05:47.728Z,8976
2022-07-25T05:06:28.248Z,7440
2022-07-25T05:07:08.793Z,10340
2022-07-25T05:07:49.208Z,9728
2022-07-25T05:08:29.633Z,6976
2022-07-25T05:09:10.281Z,4652
2022-07-25T05:10:31.288Z,6980
2022-07-25T05:11:11.808Z,5160
2022-07-25T05:15:52.408Z,1872
2022-07-25T05:16:33.360Z,1868
2022-07-25T05:17:14.476Z,1876
2022-07-25T05:17:56.326Z,1896
2022-07-25T05:18:37.308Z,1984
2022-07-25T05:22:02.731Z,2672
2022-07-25T05:22:43.794Z,4292
2022-07-25T05:23:24.738Z,7016
2022-07-25T05:24:06.834Z,6176
2022-07-25T05:27:32.519Z,3128
2022-07-25T05:28:13.594Z,4148
2022-07-25T05:28:54.591Z,4416
2022-07-25T05:31:07.852Z,2244
2022-07-25T05:31:48.327Z,2072
2022-07-25T05:34:17.688Z,5052
2022-07-25T05:34:58.190Z,2620
2022-07-25T05:35:38.630Z,2460
2022-07-25T05:36:20.022Z,2452
2022-07-25T05:37:00.485Z,2556
2022-07-25T05:38:21.657Z,3440
2022-07-25T05:39:02.211Z,3588
2022-07-25T05:45:38.718Z,8872
2022-07-25T05:46:19.329Z,6028
2022-07-25T05:46:59.782Z,6060
2022-07-25T05:47:40.185Z,10180
2022-07-25T05:50:09.322Z,12092
2022-07-25T06:33:40.372Z,4048
2022-07-25T06:34:20.401Z,3704
2022-07-25T06:35:01.039Z,3664
2022-07-25T06:35:41.648Z,4224
2022-07-25T06:36:22.241Z,4212
2022-07-25T06:37:43.363Z,4572
2022-07-25T06:38:23.861Z,4860
2022-07-25T06:43:08.591Z,2680
2022-07-25T06:43:49.298Z,2592
2022-07-25T06:44:29.989Z,2552
2022-07-25T06:45:11.154Z,2536
2022-07-25T06:45:51.840Z,2528
2022-07-25T06:46:32.630Z,2600
2022-07-25T06:47:13.090Z,2760
2022-07-25T06:47:53.654Z,4236
2022-07-25T06:52:01.368Z,3676
2022-07-25T06:52:43.052Z,4224
2022-07-25T06:57:29.021Z,5852
2022-07-25T07:04:00.736Z,4508
2022-07-25T07:04:40.728Z,4760
2022-07-25T07:05:21.588Z,5460
2022-07-25T07:06:04.965Z,5696
2022-07-25T07:06:45.830Z,5280
2022-07-25T07:07:27.399Z,6028
2022-07-25T07:08:08.103Z,5800
2022-07-25T07:09:29.591Z,5340
2022-07-25T07:10:10.581Z,5960
2022-07-25T07:13:54.476Z,4672
2022-07-25T07:14:34.909Z,6068
2022-07-25T07:15:16.844Z,7652
2022-07-25T07:15:57.599Z,6572
2022-07-25T07:18:43.626Z,3980
2022-07-25T07:19:21.377Z,3724
2022-07-25T07:22:33.940Z,3632
2022-07-25T07:23:16.584Z,3344
2022-07-25T07:23:54.245Z,3024
2022-07-25T07:28:35.259Z,3740
2022-07-25T07:29:16.066Z,4192
2022-07-25T07:29:56.556Z,3848
2022-07-25T07:30:58.939Z,3512
2022-07-25T07:31:18.269Z,3364
2022-07-25T07:31:58.283Z,3440
2022-07-25T07:36:44.375Z,2204
2022-07-25T07:37:25.152Z,2088
2022-07-25T07:38:06.371Z,2000
2022-07-25T07:38:47.168Z,1940
2022-07-25T07:39:27.742Z,1892
2022-07-25T07:45:12.841Z,2296
2022-07-25T07:45:53.959Z,2384
2022-07-25T07:46:36.154Z,2440
2022-07-25T07:47:17.077Z,2516
2022-07-25T07:47:59.570Z,2616
2022-07-25T07:50:03.365Z,2724
2022-07-25T07:50:44.969Z,2672
2022-07-25T07:51:26.157Z,2576
2022-07-25T07:52:07.436Z,2480
2022-07-25T07:54:56.463Z,2256
2022-07-25T07:55:33.919Z,2284
2022-07-25T07:56:15.103Z,2344
2022-07-25T07:56:56.410Z,2384
2022-07-25T07:57:37.472Z,2396
2022-07-25T08:03:05.770Z,1816
2022-07-25T08:03:46.905Z,1716
2022-07-25T08:07:32.189Z,1512
2022-07-25T08:08:14.287Z,1504
2022-07-25T08:08:55.343Z,1504
2022-07-25T08:09:35.393Z,1516
2022-07-25T08:10:16.062Z,1540
2022-07-25T08:11:37.114Z,1560
2022-07-25T08:12:17.864Z,1552
2022-07-25T08:12:59.106Z,1520
2022-07-25T08:13:39.574Z,1484
2022-07-25T08:14:20.202Z,1460
2022-07-25T08:15:00.938Z,1456
2022-07-25T08:15:41.661Z,1484
2022-07-25T08:16:23.376Z,1520
2022-07-25T08:21:07.424Z,1364
2022-07-25T08:21:48.063Z,1344
2022-07-25T08:25:03.556Z,1240
2022-07-25T08:25:44.171Z,1236
2022-07-25T08:26:25.381Z,1244
2022-07-25T08:27:06.035Z,1276
2022-07-25T08:31:09.677Z,1308
2022-07-25T08:38:17.418Z,1244
2022-07-25T08:40:32.645Z,1284
2022-07-25T08:41:13.301Z,1324
2022-07-25T08:41:53.825Z,1340
2022-07-25T08:42:34.547Z,1336
2022-07-25T08:43:56.022Z,1372
2022-07-25T08:44:36.746Z,1380
2022-07-25T08:45:17.355Z,1376
2022-07-25T08:45:57.909Z,1436
2022-07-25T08:46:38.609Z,1688
2022-07-25T08:47:19.217Z,1864
2022-07-25T08:47:59.926Z,2008
2022-07-25T08:48:40.581Z,2160
2022-07-25T08:49:20.938Z,2296
2022-07-25T08:54:05.767Z,3160
2022-07-25T08:54:46.113Z,3156
2022-07-25T08:55:26.495Z,3016
2022-07-25T08:56:12.484Z,2916
2022-07-25T08:56:48.548Z,2896
2022-07-25T08:57:29.018Z,3016
2022-07-25T08:58:09.556Z,3028
2022-07-25T08:58:50.298Z,2912
2022-07-25T08:59:30.844Z,3120
2022-07-25T09:02:16.238Z,3200
2022-07-25T09:02:56.706Z,3184
2022-07-25T09:03:37.271Z,3300
2022-07-25T09:04:17.805Z,3396
2022-07-25T09:04:58.466Z,3440
2022-07-25T09:05:38.926Z,3424
2022-07-25T09:07:03.899Z,3380
2022-07-25T09:15:26.025Z,2728
2022-07-25T09:16:07.061Z,2728
2022-07-25T09:16:47.671Z,2704
2022-07-25T09:17:28.204Z,2768
2022-07-25T09:18:08.814Z,2908
2022-07-25T09:18:49.360Z,3164
2022-07-25T09:19:30.087Z,3160
2022-07-25T09:20:14.153Z,3208
2022-07-25T09:25:35.917Z,2624
2022-07-25T09:26:16.655Z,2572
2022-07-25T09:26:57.311Z,2516
2022-07-25T09:27:37.945Z,2444
2022-07-25T09:28:18.509Z,2376
2022-07-25T09:28:59.014Z,2300
2022-07-25T09:29:39.712Z,2252
2022-07-25T09:30:20.419Z,2224
2022-07-25T09:31:01.168Z,2220
2022-07-25T09:34:45.865Z,2148
2022-07-25T09:35:34.205Z,2116
2022-07-25T09:36:23.099Z,2100
2022-07-25T09:37:12.275Z,2072
2022-07-25T09:38:00.557Z,2028
2022-07-25T09:38:39.970Z,1972
2022-07-25T09:39:20.544Z,1916
2022-07-25T09:40:00.995Z,1856
2022-07-25T09:40:41.552Z,1796
2022-07-25T09:41:22.064Z,1732
2022-07-25T09:42:02.620Z,1680
2022-07-25T09:42:43.265Z,1628
2022-07-25T09:43:23.780Z,1584
2022-07-25T09:44:04.588Z,1528
2022-07-25T09:44:44.952Z,1476
2022-07-25T09:45:29.655Z,1420
2022-07-25T09:50:50.829Z,1028
2022-07-25T09:51:31.309Z,992
2022-07-25T09:52:11.837Z,964
2022-07-25T09:52:52.400Z,944
2022-07-25T09:54:13.444Z,936
2022-07-25T09:54:53.928Z,924
2022-07-25T09:55:34.432Z,896
2022-07-25T09:56:14.980Z,864
2022-07-25T09:56:55.707Z,828
2022-07-25T09:57:36.438Z,788
2022-07-25T10:03:41.261Z,592
2022-07-25T10:04:21.757Z,580
2022-07-25T10:05:02.233Z,568
2022-07-25T10:05:42.794Z,552
2022-07-25T10:06:23.220Z,548
2022-07-25T10:07:03.811Z,556
2022-07-25T10:07:44.406Z,572
2022-07-25T10:08:24.877Z,600
2022-07-25T10:09:05.414Z,628
2022-07-25T10:09:45.929Z,656
2022-07-25T10:16:31.379Z,576
2022-07-25T10:17:12.113Z,560
2022-07-25T10:17:52.575Z,552
2022-07-25T10:18:33.173Z,548
2022-07-25T10:19:13.775Z,548
2022-07-25T10:19:58.642Z,568
2022-07-25T10:20:34.943Z,616
2022-07-25T10:21:25.980Z,712
2022-07-25T10:21:55.959Z,836
2022-07-25T10:28:01.249Z,2368
2022-07-25T10:28:41.430Z,2340
2022-07-25T10:29:22.065Z,2224
2022-07-25T10:30:02.512Z,2260
2022-07-25T10:30:43.030Z,2200
2022-07-25T10:31:23.596Z,2128
2022-07-25T10:32:04.116Z,2080
2022-07-25T10:32:44.668Z,2040
2022-07-25T10:33:25.112Z,2088
2022-07-25T10:34:05.954Z,2440
2022-07-25T10:34:46.162Z,1988
2022-07-25T10:41:31.128Z,1828
2022-07-25T10:42:11.649Z,2140
2022-07-25T10:42:52.176Z,2116
2022-07-25T10:43:32.670Z,2136
2022-07-25T10:44:13.202Z,2092
2022-07-25T10:44:53.691Z,2172
2022-07-25T10:45:38.034Z,2192
2022-07-25T10:46:14.792Z,2224
2022-07-25T10:46:55.258Z,2364
2022-07-25T10:47:35.702Z,2168
2022-07-25T10:48:16.415Z,2176
2022-07-25T10:54:21.231Z,1988
2022-07-25T10:55:01.902Z,1932
2022-07-25T10:55:42.461Z,1776
2022-07-25T10:56:22.948Z,1800
2022-07-25T10:57:03.722Z,1700
2022-07-25T10:58:01.238Z,1764
2022-07-25T10:58:24.650Z,1844
2022-07-25T10:59:05.421Z,1948
2022-07-25T10:59:45.710Z,2220
2022-07-25T11:00:26.209Z,2164
2022-07-25T11:06:31.906Z,2104
2022-07-25T11:07:12.434Z,2100
2022-07-25T11:08:11.465Z,2052
2022-07-25T11:08:33.686Z,1996
2022-07-25T11:09:17.838Z,1964
2022-07-25T11:09:54.705Z,1972
2022-07-25T11:10:35.295Z,2040
2022-07-25T11:11:15.785Z,1988
2022-07-25T11:18:01.157Z,1684
2022-07-25T11:18:41.749Z,1792
2022-07-25T11:19:24.518Z,1840
2022-07-25T11:20:05.123Z,1824
2022-07-25T11:20:45.755Z,1804
2022-07-25T11:24:57.138Z,2272
2022-07-25T11:28:17.536Z,1916
2022-07-25T11:28:57.299Z,1880
2022-07-25T11:29:37.872Z,1972
2022-07-25T11:30:18.469Z,2004
2022-07-25T11:30:58.869Z,1952
2022-07-25T11:31:39.697Z,1916
2022-07-25T11:32:20.239Z,1980
2022-07-25T11:33:01.276Z,2048
2022-07-25T11:33:42.158Z,2036
2022-07-25T11:38:44.435Z,2164
2022-07-25T11:39:26.313Z,2288
2022-07-25T11:40:06.829Z,2028
2022-07-25T11:40:48.119Z,2012
2022-07-25T11:41:28.655Z,2096
2022-07-25T11:46:54.056Z,2364
2022-07-25T11:47:34.426Z,2360
2022-07-25T11:48:56.967Z,2052
2022-07-25T11:49:37.558Z,2020
2022-07-25T11:50:18.001Z,2320
2022-07-25T11:52:25.404Z,2196
2022-07-25T11:53:05.845Z,2236
2022-07-25T12:32:40.896Z,1460
2022-07-25T12:33:22.969Z,1628
2022-07-25T12:34:04.290Z,1664
2022-07-25T12:34:45.339Z,1720
2022-07-25T12:37:29.483Z,1936
2022-07-25T12:38:10.383Z,1940
2022-07-25T12:38:51.781Z,1948
2022-07-25T12:39:32.889Z,1768
2022-07-25T12:40:13.934Z,1632
2022-07-25T12:42:59.616Z,1328
2022-07-25T12:43:41.351Z,1332
2022-07-25T12:44:22.475Z,1324
2022-07-25T12:45:04.414Z,1320
2022-07-25T12:46:29.903Z,1348
2022-07-25T12:47:09.745Z,1564
2022-07-25T12:47:51.065Z,1344
2022-07-25T12:48:33.360Z,1424
2022-07-25T12:49:15.275Z,1492
2022-07-25T12:50:44.634Z,1812
2022-07-25T12:52:50.832Z,2040
2022-07-25T12:53:32.004Z,2064
2022-07-25T12:54:18.738Z,2004
2022-07-25T12:57:00.990Z,1908
2022-07-25T12:57:41.903Z,1860
2022-07-25T12:58:38.290Z,1820
2022-07-25T13:01:14.677Z,1884
2022-07-25T13:01:54.496Z,2080
2022-07-25T13:02:34.896Z,1904
2022-07-25T13:03:15.385Z,1912
2022-07-25T13:03:56.053Z,1852
2022-07-25T13:04:36.454Z,1856
2022-07-25T13:05:17.319Z,2356
2022-07-25T13:05:57.960Z,2084
2022-07-25T13:06:39.311Z,2148
2022-07-25T13:11:24.603Z,1756
2022-07-25T13:12:05.236Z,1740
2022-07-25T13:12:45.774Z,1720
2022-07-25T13:13:26.390Z,1676
2022-07-25T13:14:06.966Z,1736
2022-07-25T13:14:47.465Z,1884
2022-07-25T13:15:28.025Z,1856
2022-07-25T13:16:08.711Z,2640
2022-07-25T13:21:33.513Z,1768
2022-07-25T13:22:14.043Z,1660
2022-07-25T13:22:54.716Z,2480
2022-07-25T13:23:35.161Z,1896
2022-07-25T13:24:15.802Z,2372
2022-07-25T13:24:56.190Z,2504
2022-07-25T13:25:37.615Z,2448
2022-07-25T13:26:18.208Z,2248
2022-07-25T13:26:58.672Z,1916
2022-07-25T13:33:03.668Z,1460
2022-07-25T13:33:44.187Z,1468
2022-07-25T13:34:24.823Z,1540
2022-07-25T13:35:05.314Z,1520
2022-07-25T13:35:46.844Z,1540
2022-07-25T13:36:27.379Z,1552
2022-07-25T13:37:07.837Z,1572
2022-07-25T13:37:48.430Z,1596
2022-07-25T13:38:28.815Z,1596
2022-07-25T13:44:33.486Z,1416
2022-07-25T13:45:14.020Z,1416
2022-07-25T13:45:54.630Z,1452
2022-07-25T13:46:35.049Z,1460
2022-07-25T13:47:15.672Z,1460
2022-07-25T13:48:12.420Z,1440
2022-07-25T13:48:36.893Z,1416
2022-07-25T13:49:18.467Z,1408
2022-07-25T13:55:24.010Z,1624
2022-07-25T13:56:04.527Z,1628
2022-07-25T13:56:45.146Z,1624
2022-07-25T13:57:25.556Z,1620
2022-07-25T13:58:06.087Z,1628
2022-07-25T13:59:27.230Z,1620
2022-07-25T14:00:07.854Z,1620
2022-07-25T14:00:48.445Z,1632
2022-07-25T14:07:33.654Z,1780
2022-07-25T14:08:14.179Z,1800
2022-07-25T14:08:54.714Z,1784
2022-07-25T14:09:35.217Z,1796
2022-07-25T14:10:15.696Z,1736
2022-07-25T14:10:56.237Z,1684
2022-07-25T14:11:36.697Z,1652
2022-07-25T14:12:17.237Z,1628
2022-07-25T14:12:57.697Z,1588
2022-07-25T14:13:38.176Z,1544
2022-07-25T14:14:18.702Z,1512
2022-07-25T14:21:05.162Z,1376
2022-07-25T14:21:45.721Z,1384
2022-07-25T14:22:26.185Z,1388
2022-07-25T14:23:06.615Z,1384
2022-07-25T14:23:47.178Z,1364
2022-07-25T14:24:27.601Z,1332
2022-07-25T14:25:08.096Z,1328
2022-07-25T14:25:48.658Z,1340
2022-07-25T14:32:33.883Z,1300
2022-07-25T14:33:14.743Z,1304
2022-07-25T14:33:56.211Z,1292
2022-07-25T14:34:36.989Z,1300
2022-07-25T14:35:17.415Z,1312
2022-07-25T14:35:57.928Z,1316
2022-07-25T14:37:19.818Z,1300
2022-07-25T14:38:05.709Z,1264
2022-07-25T14:38:46.666Z,1244
2022-07-25T14:41:00.136Z,1176
2022-07-25T14:41:40.586Z,1160
2022-07-25T14:42:21.104Z,1108
2022-07-25T14:43:01.662Z,1052
2022-07-25T14:43:42.104Z,1012
2022-07-25T14:44:22.682Z,980
2022-07-25T14:45:03.221Z,940
2022-07-25T14:45:43.677Z,912
2022-07-25T14:46:24.170Z,888
2022-07-25T14:47:07.843Z,876
2022-07-25T14:53:09.690Z,820
2022-07-25T14:53:53.220Z,800
2022-07-25T14:54:30.587Z,784
2022-07-25T14:55:11.076Z,784
2022-07-25T14:55:51.611Z,776
2022-07-25T14:56:32.045Z,788
2022-07-25T14:57:12.538Z,796
2022-07-25T14:57:53.015Z,792
2022-07-25T14:58:33.627Z,788
2022-07-25T14:59:14.006Z,796
2022-07-25T14:59:54.512Z,816
2022-07-25T15:00:35.131Z,844
2022-07-25T15:06:39.833Z,1212
2022-07-25T15:07:20.551Z,1228
2022-07-25T15:08:01.049Z,1212
2022-07-25T15:08:41.510Z,1180
2022-07-25T15:09:21.969Z,1152
2022-07-25T15:10:02.555Z,1144
2022-07-25T15:10:43.016Z,1136
2022-07-25T15:11:23.570Z,1100
2022-07-25T15:12:03.986Z,1056
2022-07-25T15:19:13.739Z,1124
2022-07-25T15:19:30.551Z,1152
2022-07-25T15:20:10.848Z,1160
2022-07-25T15:20:51.466Z,1140
2022-07-25T15:21:31.911Z,1144
2022-07-25T15:22:12.471Z,1140
2022-07-25T15:22:52.978Z,1140
2022-07-25T15:23:33.475Z,1132
2022-07-25T15:24:13.943Z,1096
2022-07-25T15:25:27.498Z,1108
2022-07-25T15:31:00.161Z,1108
2022-07-25T15:31:40.532Z,1108
2022-07-25T15:32:21.060Z,1096
2022-07-25T15:33:01.505Z,1032
2022-07-25T15:33:41.983Z,992
2022-07-25T15:34:22.424Z,960
2022-07-25T15:35:02.999Z,952
2022-07-25T15:35:43.461Z,936
2022-07-25T15:36:28.925Z,896
2022-07-25T15:37:04.417Z,840
2022-07-25T15:37:44.866Z,788
2022-07-25T15:41:49.671Z,756
2022-07-25T15:42:30.152Z,744
2022-07-25T15:43:10.622Z,728
2022-07-25T15:43:51.088Z,712
2022-07-25T15:44:31.609Z,712
2022-07-25T15:45:52.593Z,756
2022-07-25T15:46:33.261Z,776
2022-07-25T15:47:13.624Z,828
2022-07-25T15:47:54.032Z,868
2022-07-25T15:48:34.620Z,872
2022-07-25T15:54:39.721Z,856
2022-07-25T15:55:20.167Z,868
2022-07-25T15:56:00.754Z,856
2022-07-25T15:56:41.201Z,796
2022-07-25T15:57:21.691Z,788
2022-07-25T15:58:02.229Z,792
2022-07-25T15:58:43.190Z,804
2022-07-25T16:00:04.193Z,816
2022-07-25T16:00:44.735Z,844
2022-07-25T16:07:29.803Z,952
2022-07-25T16:08:10.275Z,928
2022-07-25T16:08:50.806Z,912
2022-07-25T16:09:31.224Z,940
2022-07-25T16:10:11.794Z,968
2022-07-25T16:10:52.250Z,1000
2022-07-25T16:11:32.750Z,1040
2022-07-25T16:12:13.348Z,1068
2022-07-25T16:12:53.728Z,1096
2022-07-25T16:13:34.209Z,1168
2022-07-25T16:14:14.735Z,1192
2022-07-25T16:18:20.025Z,1012
2022-07-25T16:19:01.034Z,996
2022-07-25T16:19:41.525Z,1004
2022-07-25T16:20:22.102Z,980
2022-07-25T16:21:02.534Z,976
2022-07-25T16:21:43.000Z,980
2022-07-25T16:22:23.496Z,968
2022-07-25T16:23:04.091Z,948
2022-07-25T16:23:45.638Z,940
2022-07-25T16:29:49.638Z,956
2022-07-25T16:30:30.072Z,944
2022-07-25T16:31:10.580Z,948
2022-07-25T16:31:51.426Z,940
2022-07-25T16:32:32.229Z,940
2022-07-25T16:33:12.763Z,956
2022-07-25T16:33:53.301Z,1028
2022-07-25T16:34:33.793Z,1048
2022-07-25T16:35:14.520Z,1028
2022-07-25T16:35:54.974Z,1020
2022-07-25T16:41:20.197Z,948
2022-07-25T16:42:00.756Z,936
2022-07-25T16:42:41.439Z,924
2022-07-25T16:43:21.959Z,916
2022-07-25T16:44:02.422Z,924
2022-07-25T16:44:42.917Z,920
2022-07-25T16:45:23.500Z,952
2022-07-25T16:46:04.062Z,1000
2022-07-25T16:46:44.489Z,1004
2022-07-25T16:53:29.904Z,820
2022-07-25T16:54:10.462Z,800
2022-07-25T16:54:50.953Z,784
2022-07-25T16:55:31.424Z,776
2022-07-25T16:56:11.925Z,756
2022-07-25T16:57:33.584Z,712
2022-07-25T16:58:14.162Z,696
2022-07-25T16:58:54.625Z,680
2022-07-25T17:04:59.747Z,612
2022-07-25T17:05:40.058Z,604
2022-07-25T17:06:20.915Z,600
2022-07-25T17:10:32.002Z,656
2022-07-25T17:11:12.915Z,652
2022-07-25T17:11:53.934Z,656
2022-07-25T17:12:34.992Z,684
2022-07-25T17:13:16.054Z,688
2022-07-25T17:16:41.043Z,600
2022-07-25T17:17:22.052Z,584
2022-07-25T17:18:03.017Z,576
2022-07-25T17:18:43.967Z,572
2022-07-25T17:19:24.945Z,572
2022-07-25T17:20:06.126Z,576
2022-07-25T17:22:51.463Z,576
2022-07-25T17:23:32.475Z,580
2022-07-25T17:24:13.428Z,592
2022-07-25T17:24:54.391Z,612
2022-07-25T17:25:35.381Z,624
2022-07-25T17:26:16.466Z,632
2022-07-25T17:29:01.006Z,612
2022-07-25T17:29:42.210Z,604
2022-07-25T17:30:23.056Z,604
2022-07-25T17:31:04.308Z,592
2022-07-25T17:31:45.324Z,592
2022-07-25T17:36:55.441Z,504
2022-07-25T17:37:36.568Z,492
2022-07-25T17:38:17.832Z,484
2022-07-25T17:38:58.009Z,476
2022-07-25T17:43:02.255Z,472
2022-07-25T17:43:42.773Z,464
2022-07-25T17:44:23.252Z,488
2022-07-25T17:45:04.029Z,516
2022-07-25T17:45:44.794Z,552
2022-07-25T17:46:25.558Z,576
2022-07-25T17:47:05.954Z,572
2022-07-25T17:47:46.587Z,572
2022-07-25T17:51:01.101Z,608
2022-07-25T17:51:41.866Z,608
2022-07-25T17:52:22.323Z,600
2022-07-25T17:53:02.951Z,604
2022-07-25T17:53:43.474Z,596
2022-07-25T18:37:59.753Z,360
2022-07-25T18:38:43.147Z,348
2022-07-25T18:39:27.986Z,344
2022-07-25T18:40:09.740Z,348
2022-07-25T18:42:42.056Z,324
2022-07-25T18:43:20.889Z,316
2022-07-25T18:44:02.508Z,316
2022-07-25T18:44:43.553Z,308
2022-07-25T18:45:24.573Z,304
2022-07-25T18:46:05.859Z,300
2022-07-25T18:49:49.473Z,296
2022-07-25T18:50:29.900Z,284
2022-07-25T18:51:10.377Z,272
2022-07-25T18:51:50.912Z,260
2022-07-25T18:57:16.076Z,196
2022-07-25T18:57:56.607Z,192
2022-07-25T18:58:37.087Z,188
2022-07-25T18:59:17.627Z,188
2022-07-25T19:00:02.725Z,180
2022-07-25T19:00:39.041Z,180
2022-07-25T19:01:19.649Z,172
2022-07-25T19:02:00.291Z,168
2022-07-25T19:02:41.128Z,160
2022-07-25T19:06:46.063Z,136
2022-07-25T19:07:26.605Z,132
2022-07-25T19:08:07.136Z,132
2022-07-25T19:08:48.007Z,128
2022-07-25T19:09:29.085Z,120
2022-07-25T19:10:10.719Z,116
2022-07-25T19:15:36.357Z,88
2022-07-25T19:16:17.236Z,80
2022-07-25T19:16:59.784Z,80
2022-07-25T19:17:40.191Z,72
2022-07-25T19:18:20.707Z,72
2022-07-25T19:20:59.882Z,60
2022-07-25T19:21:40.175Z,56
2022-07-25T19:22:20.648Z,56
2022-07-25T19:23:01.644Z,52
2022-07-25T19:23:44.728Z,48
2022-07-25T19:25:45.302Z,40
2022-07-25T19:26:25.963Z,40
2022-07-25T19:27:06.485Z,36
2022-07-25T19:27:46.940Z,32
2022-07-25T19:28:27.495Z,36
2022-07-25T19:29:07.958Z,32
2022-07-25T19:29:48.747Z,32
2022-07-25T19:30:29.911Z,28
2022-07-25T19:40:13.115Z,12
2022-07-25T19:40:52.950Z,8
2022-07-25T19:41:34.820Z,8
2022-07-25T19:42:19.291Z,8
2022-07-25T19:43:06.137Z,4
2022-07-25T19:43:45.756Z,8
2022-07-25T19:44:30.148Z,4
2022-07-25T19:45:10.539Z,4
2022-07-25T19:45:51.589Z,4
2022-07-25T19:46:32.084Z,4
2022-07-25T19:47:12.559Z,4
2022-07-25T19:47:53.193Z,0
2022-07-25T19:50:05.092Z,4
2022-07-25T19:51:29.306Z,0
2022-07-25T19:52:16.350Z,4
2022-07-25T19:54:56.609Z,0
2022-07-25T19:55:37.054Z,0